Terminal Aerodrome Forecast
Issued by NWS Melbourne, FL

Home | Current Version | Previous Version | Text Only | Print | Product List | Glossary On
Versions: 1 2 3 4 5 6 7 8 9 10 11 12 13 14 15 16
000
FTUS42 KMLB 220500
TAFVRB
TAF
KVRB 220522Z 2206/2306 VRB03KT P6SM FEW035 BKN250
     FM221400 33006KT P6SM FEW030 BKN250
     FM221700 01010KT P6SM SCT035 SCT100 BKN250
     FM230000 01007KT P6SM FEW040 SCT120 BKN250=

USA.gov is the U.S. government's official web portal to all federal, state and local government web resources and services.